Terminal Aerodrome Forecast
Issued by NWS Albany, NY

Home | Current Version | Previous Version | Text Only | Print | Product List | Glossary On
Versions: 1 2 3 4 5 6 7 8 9 10 11 12 13 14 15 16 17
000
FTUS41 KALY 021137
TAFPOU
TAF
KPOU 021137Z 0212/0312 24005KT P6SM OVC050
     FM021300 28009KT P6SM OVC050
     FM021600 29012G20KT P6SM BKN050
     FM030100 30007KT P6SM FEW050
     FM030600 33003KT P6SM SKC=

USA.gov is the U.S. government's official web portal to all federal, state and local government web resources and services.